sensor_id;sensor_type;location;lat;lon;timestamp;P1;durP1;ratioP1;P2;durP2;ratioP2
80272;SDS011;69574;45.328;9.598;2023-08-30T00:00:35;5.03;;;2.90;;
80272;SDS011;69574;45.328;9.598;2023-08-30T00:03:01;6.72;;;3.00;;
80272;SDS011;69574;45.328;9.598;2023-08-30T00:05:27;4.75;;;3.30;;
80272;SDS011;69574;45.328;9.598;2023-08-30T00:07:53;4.75;;;2.53;;
80272;SDS011;69574;45.328;9.598;2023-08-30T00:10:18;5.35;;;2.72;;
80272;SDS011;69574;45.328;9.598;2023-08-30T00:12:44;5.90;;;3.22;;
80272;SDS011;69574;45.328;9.598;2023-08-30T00:15:10;4.32;;;2.80;;
80272;SDS011;69574;45.328;9.598;2023-08-30T00:17:37;4.82;;;2.85;;
80272;SDS011;69574;45.328;9.598;2023-08-30T00:20:03;5.22;;;2.60;;
80272;SDS011;69574;45.328;9.598;2023-08-30T00:22:29;5.25;;;2.70;;
80272;SDS011;69574;45.328;9.598;2023-08-30T00:24:55;4.80;;;2.78;;
80272;SDS011;69574;45.328;9.598;2023-08-30T00:27:20;5.70;;;2.60;;
80272;SDS011;69574;45.328;9.598;2023-08-30T00:29:46;4.53;;;2.67;;
80272;SDS011;69574;45.328;9.598;2023-08-30T00:32:12;5.90;;;3.03;;
80272;SDS011;69574;45.328;9.598;2023-08-30T00:34:40;6.65;;;2.90;;
80272;SDS011;69574;45.328;9.598;2023-08-30T00:37:05;5.65;;;2.95;;
80272;SDS011;69574;45.328;9.598;2023-08-30T00:39:31;5.55;;;3.00;;
80272;SDS011;69574;45.328;9.598;2023-08-30T00:41:57;4.97;;;2.70;;
80272;SDS011;69574;45.328;9.598;2023-08-30T00:44:23;5.50;;;2.75;;
80272;SDS011;69574;45.328;9.598;2023-08-30T00:46:48;6.32;;;2.80;;
80272;SDS011;69574;45.328;9.598;2023-08-30T00:49:14;5.22;;;2.60;;
80272;SDS011;69574;45.328;9.598;2023-08-30T00:51:41;4.38;;;2.60;;
80272;SDS011;69574;45.328;9.598;2023-08-30T00:54:07;4.82;;;2.80;;
80272;SDS011;69574;45.328;9.598;2023-08-30T00:56:33;6.35;;;2.80;;
80272;SDS011;69574;45.328;9.598;2023-08-30T00:58:59;4.68;;;2.97;;
80272;SDS011;69574;45.328;9.598;2023-08-30T01:01:25;5.35;;;2.72;;
80272;SDS011;69574;45.328;9.598;2023-08-30T01:03:51;5.05;;;2.92;;
80272;SDS011;69574;45.328;9.598;2023-08-30T01:06:17;7.18;;;2.90;;
80272;SDS011;69574;45.328;9.598;2023-08-30T01:08:44;5.90;;;2.88;;
80272;SDS011;69574;45.328;9.598;2023-08-30T01:11:11;6.80;;;3.00;;
80272;SDS011;69574;45.328;9.598;2023-08-30T01:13:40;5.53;;;2.90;;
80272;SDS011;69574;45.328;9.598;2023-08-30T01:16:07;7.90;;;3.35;;
80272;SDS011;69574;45.328;9.598;2023-08-30T01:18:33;6.00;;;3.22;;
80272;SDS011;69574;45.328;9.598;2023-08-30T01:20:59;5.75;;;2.88;;
80272;SDS011;69574;45.328;9.598;2023-08-30T01:23:29;6.20;;;3.08;;
80272;SDS011;69574;45.328;9.598;2023-08-30T01:26:01;8.73;;;3.90;;
80272;SDS011;69574;45.328;9.598;2023-08-30T01:28:31;8.80;;;3.20;;
80272;SDS011;69574;45.328;9.598;2023-08-30T01:30:58;7.32;;;3.75;;
80272;SDS011;69574;45.328;9.598;2023-08-30T01:33:24;6.93;;;3.60;;
80272;SDS011;69574;45.328;9.598;2023-08-30T01:35:53;6.32;;;3.40;;
80272;SDS011;69574;45.328;9.598;2023-08-30T01:40:44;6.22;;;3.15;;
80272;SDS011;69574;45.328;9.598;2023-08-30T01:43:10;6.55;;;3.17;;
80272;SDS011;69574;45.328;9.598;2023-08-30T01:45:38;6.63;;;3.10;;
80272;SDS011;69574;45.328;9.598;2023-08-30T01:48:04;9.45;;;3.42;;
80272;SDS011;69574;45.328;9.598;2023-08-30T01:50:31;6.18;;;3.35;;
80272;SDS011;69574;45.328;9.598;2023-08-30T01:52:57;5.82;;;2.90;;
80272;SDS011;69574;45.328;9.598;2023-08-30T01:55:24;7.25;;;2.80;;
80272;SDS011;69574;45.328;9.598;2023-08-30T01:57:50;7.22;;;3.38;;
80272;SDS011;69574;45.328;9.598;2023-08-30T02:00:16;6.78;;;2.95;;
80272;SDS011;69574;45.328;9.598;2023-08-30T02:02:43;4.78;;;2.92;;
80272;SDS011;69574;45.328;9.598;2023-08-30T02:05:09;5.15;;;3.10;;
80272;SDS011;69574;45.328;9.598;2023-08-30T02:07:36;7.53;;;3.33;;
80272;SDS011;69574;45.328;9.598;2023-08-30T02:10:04;5.50;;;2.90;;
80272;SDS011;69574;45.328;9.598;2023-08-30T02:12:34;4.95;;;2.88;;
80272;SDS011;69574;45.328;9.598;2023-08-30T02:15:00;4.95;;;2.67;;
80272;SDS011;69574;45.328;9.598;2023-08-30T02:17:27;7.15;;;3.00;;
80272;SDS011;69574;45.328;9.598;2023-08-30T02:19:54;5.35;;;3.08;;
80272;SDS011;69574;45.328;9.598;2023-08-30T02:22:20;6.28;;;2.88;;
80272;SDS011;69574;45.328;9.598;2023-08-30T02:24:45;6.35;;;3.00;;
80272;SDS011;69574;45.328;9.598;2023-08-30T02:27:11;4.32;;;2.80;;
80272;SDS011;69574;45.328;9.598;2023-08-30T02:29:37;6.00;;;2.67;;
80272;SDS011;69574;45.328;9.598;2023-08-30T02:32:03;4.43;;;2.90;;
80272;SDS011;69574;45.328;9.598;2023-08-30T02:34:29;5.70;;;2.90;;
80272;SDS011;69574;45.328;9.598;2023-08-30T02:36:56;4.72;;;2.88;;
80272;SDS011;69574;45.328;9.598;2023-08-30T02:39:22;4.35;;;2.58;;
80272;SDS011;69574;45.328;9.598;2023-08-30T02:41:48;6.63;;;3.45;;
80272;SDS011;69574;45.328;9.598;2023-08-30T02:44:14;7.00;;;2.97;;
80272;SDS011;69574;45.328;9.598;2023-08-30T02:46:39;5.10;;;3.03;;
80272;SDS011;69574;45.328;9.598;2023-08-30T02:49:06;6.05;;;3.00;;
80272;SDS011;69574;45.328;9.598;2023-08-30T02:51:32;4.82;;;2.70;;
80272;SDS011;69574;45.328;9.598;2023-08-30T02:53:59;6.65;;;3.10;;
80272;SDS011;69574;45.328;9.598;2023-08-30T02:56:25;7.10;;;3.13;;
80272;SDS011;69574;45.328;9.598;2023-08-30T02:58:51;4.47;;;2.92;;
80272;SDS011;69574;45.328;9.598;2023-08-30T03:01:17;5.82;;;2.97;;
80272;SDS011;69574;45.328;9.598;2023-08-30T03:03:42;6.20;;;3.22;;
80272;SDS011;69574;45.328;9.598;2023-08-30T03:06:08;5.47;;;2.95;;
80272;SDS011;69574;45.328;9.598;2023-08-30T03:08:34;6.00;;;2.97;;
80272;SDS011;69574;45.328;9.598;2023-08-30T03:11:08;5.22;;;2.85;;
80272;SDS011;69574;45.328;9.598;2023-08-30T03:13:34;6.07;;;3.05;;
80272;SDS011;69574;45.328;9.598;2023-08-30T03:16:00;6.65;;;2.85;;
80272;SDS011;69574;45.328;9.598;2023-08-30T03:18:26;4.45;;;3.13;;
80272;SDS011;69574;45.328;9.598;2023-08-30T03:20:59;5.35;;;2.88;;
80272;SDS011;69574;45.328;9.598;2023-08-30T03:23:25;5.90;;;2.97;;
80272;SDS011;69574;45.328;9.598;2023-08-30T03:28:18;4.90;;;3.20;;
80272;SDS011;69574;45.328;9.598;2023-08-30T03:30:44;5.50;;;2.92;;
80272;SDS011;69574;45.328;9.598;2023-08-30T03:33:09;6.68;;;3.00;;
80272;SDS011;69574;45.328;9.598;2023-08-30T03:35:35;5.40;;;3.03;;
80272;SDS011;69574;45.328;9.598;2023-08-30T03:38:01;4.65;;;2.90;;
80272;SDS011;69574;45.328;9.598;2023-08-30T03:40:26;5.78;;;3.35;;
80272;SDS011;69574;45.328;9.598;2023-08-30T03:42:52;4.65;;;2.88;;
80272;SDS011;69574;45.328;9.598;2023-08-30T03:45:20;5.65;;;3.25;;
80272;SDS011;69574;45.328;9.598;2023-08-30T03:47:45;7.75;;;3.75;;
80272;SDS011;69574;45.328;9.598;2023-08-30T03:50:11;4.93;;;3.45;;
80272;SDS011;69574;45.328;9.598;2023-08-30T03:52:37;6.15;;;3.35;;
80272;SDS011;69574;45.328;9.598;2023-08-30T03:55:02;5.40;;;3.40;;
80272;SDS011;69574;45.328;9.598;2023-08-30T03:57:28;4.85;;;3.50;;
80272;SDS011;69574;45.328;9.598;2023-08-30T03:59:54;6.07;;;3.05;;
80272;SDS011;69574;45.328;9.598;2023-08-30T04:02:21;5.35;;;3.38;;
80272;SDS011;69574;45.328;9.598;2023-08-30T04:04:47;5.22;;;3.40;;
80272;SDS011;69574;45.328;9.598;2023-08-30T04:07:13;5.25;;;3.45;;
80272;SDS011;69574;45.328;9.598;2023-08-30T04:09:39;4.53;;;3.45;;
80272;SDS011;69574;45.328;9.598;2023-08-30T04:12:05;6.63;;;3.70;;
80272;SDS011;69574;45.328;9.598;2023-08-30T04:14:31;6.97;;;3.30;;
80272;SDS011;69574;45.328;9.598;2023-08-30T04:16:56;4.53;;;3.03;;
80272;SDS011;69574;45.328;9.598;2023-08-30T04:19:23;6.32;;;2.95;;
80272;SDS011;69574;45.328;9.598;2023-08-30T04:21:49;4.65;;;2.90;;
80272;SDS011;69574;45.328;9.598;2023-08-30T04:24:15;5.30;;;3.10;;
80272;SDS011;69574;45.328;9.598;2023-08-30T04:26:41;4.80;;;2.97;;
80272;SDS011;69574;45.328;9.598;2023-08-30T04:29:06;6.18;;;3.10;;
80272;SDS011;69574;45.328;9.598;2023-08-30T04:31:32;5.00;;;3.22;;
80272;SDS011;69574;45.328;9.598;2023-08-30T04:33:58;7.10;;;3.58;;
80272;SDS011;69574;45.328;9.598;2023-08-30T04:36:25;7.05;;;3.15;;
80272;SDS011;69574;45.328;9.598;2023-08-30T04:38:51;5.43;;;3.15;;
80272;SDS011;69574;45.328;9.598;2023-08-30T04:41:16;5.72;;;3.13;;
80272;SDS011;69574;45.328;9.598;2023-08-30T04:43:42;6.10;;;3.22;;
80272;SDS011;69574;45.328;9.598;2023-08-30T04:46:08;5.32;;;2.83;;
80272;SDS011;69574;45.328;9.598;2023-08-30T04:48:34;6.72;;;3.30;;
80272;SDS011;69574;45.328;9.598;2023-08-30T04:51:00;5.88;;;3.20;;
80272;SDS011;69574;45.328;9.598;2023-08-30T04:53:27;4.03;;;2.90;;
80272;SDS011;69574;45.328;9.598;2023-08-30T04:55:53;5.40;;;3.08;;
80272;SDS011;69574;45.328;9.598;2023-08-30T04:58:19;6.13;;;3.17;;
80272;SDS011;69574;45.328;9.598;2023-08-30T05:00:45;5.75;;;3.28;;
80272;SDS011;69574;45.328;9.598;2023-08-30T05:03:10;4.00;;;2.90;;
80272;SDS011;69574;45.328;9.598;2023-08-30T05:05:36;6.53;;;3.33;;
80272;SDS011;69574;45.328;9.598;2023-08-30T05:08:02;5.13;;;3.17;;
80272;SDS011;69574;45.328;9.598;2023-08-30T05:12:55;4.03;;;2.63;;
80272;SDS011;69574;45.328;9.598;2023-08-30T05:15:21;7.38;;;3.50;;
80272;SDS011;69574;45.328;9.598;2023-08-30T05:17:47;4.97;;;3.05;;
80272;SDS011;69574;45.328;9.598;2023-08-30T05:20:12;5.82;;;3.10;;
80272;SDS011;69574;45.328;9.598;2023-08-30T05:22:38;5.78;;;3.30;;
80272;SDS011;69574;45.328;9.598;2023-08-30T05:25:04;5.47;;;2.97;;
80272;SDS011;69574;45.328;9.598;2023-08-30T05:27:30;5.32;;;3.05;;
80272;SDS011;69574;45.328;9.598;2023-08-30T05:29:57;5.70;;;3.15;;
80272;SDS011;69574;45.328;9.598;2023-08-30T05:32:23;5.00;;;3.00;;
80272;SDS011;69574;45.328;9.598;2023-08-30T05:34:49;4.72;;;2.97;;
80272;SDS011;69574;45.328;9.598;2023-08-30T05:37:14;4.93;;;3.08;;
80272;SDS011;69574;45.328;9.598;2023-08-30T05:39:40;5.97;;;3.10;;
80272;SDS011;69574;45.328;9.598;2023-08-30T05:42:06;5.13;;;2.83;;
80272;SDS011;69574;45.328;9.598;2023-08-30T05:44:31;6.70;;;3.10;;
80272;SDS011;69574;45.328;9.598;2023-08-30T05:46:59;5.60;;;3.30;;
80272;SDS011;69574;45.328;9.598;2023-08-30T05:49:24;5.55;;;2.90;;
80272;SDS011;69574;45.328;9.598;2023-08-30T05:51:52;5.43;;;3.03;;
80272;SDS011;69574;45.328;9.598;2023-08-30T05:54:18;5.97;;;3.03;;
80272;SDS011;69574;45.328;9.598;2023-08-30T05:56:43;9.27;;;3.50;;
80272;SDS011;69574;45.328;9.598;2023-08-30T05:59:09;10.60;;;3.65;;
80272;SDS011;69574;45.328;9.598;2023-08-30T06:01:35;5.40;;;3.15;;
80272;SDS011;69574;45.328;9.598;2023-08-30T06:04:02;5.38;;;2.80;;
80272;SDS011;69574;45.328;9.598;2023-08-30T06:06:29;5.97;;;3.17;;
80272;SDS011;69574;45.328;9.598;2023-08-30T06:08:55;5.95;;;2.92;;
80272;SDS011;69574;45.328;9.598;2023-08-30T06:11:20;5.50;;;3.00;;
80272;SDS011;69574;45.328;9.598;2023-08-30T06:13:46;6.20;;;3.08;;
80272;SDS011;69574;45.328;9.598;2023-08-30T06:16:12;5.40;;;3.00;;
80272;SDS011;69574;45.328;9.598;2023-08-30T06:18:37;5.30;;;2.78;;
80272;SDS011;69574;45.328;9.598;2023-08-30T06:21:05;7.25;;;2.97;;
80272;SDS011;69574;45.328;9.598;2023-08-30T06:23:31;5.18;;;2.88;;
80272;SDS011;69574;45.328;9.598;2023-08-30T06:25:56;6.63;;;2.88;;
80272;SDS011;69574;45.328;9.598;2023-08-30T06:28:24;7.55;;;2.90;;
80272;SDS011;69574;45.328;9.598;2023-08-30T06:30:49;5.35;;;2.85;;
80272;SDS011;69574;45.328;9.598;2023-08-30T06:33:16;6.95;;;3.30;;
80272;SDS011;69574;45.328;9.598;2023-08-30T06:35:41;6.50;;;3.03;;
80272;SDS011;69574;45.328;9.598;2023-08-30T06:38:09;7.05;;;2.92;;
80272;SDS011;69574;45.328;9.598;2023-08-30T06:40:35;6.20;;;2.58;;
80272;SDS011;69574;45.328;9.598;2023-08-30T06:43:00;8.02;;;2.80;;
80272;SDS011;69574;45.328;9.598;2023-08-30T08:22:05;5.82;;;2.20;;
80272;SDS011;69574;45.328;9.598;2023-08-30T08:24:47;3.30;;;1.83;;
80272;SDS011;69574;45.328;9.598;2023-08-30T13:03:08;7.75;;;2.10;;
80272;SDS011;69574;45.328;9.598;2023-08-30T13:05:34;7.88;;;2.20;;
80272;SDS011;69574;45.328;9.598;2023-08-30T13:08:01;7.63;;;2.08;;
80272;SDS011;69574;45.328;9.598;2023-08-30T13:10:27;4.18;;;1.85;;
80272;SDS011;69574;45.328;9.598;2023-08-30T13:12:53;4.32;;;1.90;;
80272;SDS011;69574;45.328;9.598;2023-08-30T13:15:19;4.97;;;1.70;;
80272;SDS011;69574;45.328;9.598;2023-08-30T13:17:45;2.95;;;1.55;;
80272;SDS011;69574;45.328;9.598;2023-08-30T18:40:07;1.80;;;0.95;;
